sensor_id;sensor_type;location;lat;lon;timestamp;temperature;humidity
14884;DHT22;7534;50.762;7.000;2022-08-23T00:02:05;20.40;92.40
14884;DHT22;7534;50.762;7.000;2022-08-23T00:04:37;20.50;92.50
14884;DHT22;7534;50.762;7.000;2022-08-23T00:07:06;20.40;92.60
14884;DHT22;7534;50.762;7.000;2022-08-23T00:09:34;20.40;92.60
14884;DHT22;7534;50.762;7.000;2022-08-23T00:12:08;20.30;92.60
14884;DHT22;7534;50.762;7.000;2022-08-23T00:14:39;20.30;92.80
14884;DHT22;7534;50.762;7.000;2022-08-23T00:17:10;20.20;93.00
14884;DHT22;7534;50.762;7.000;2022-08-23T00:19:36;20.10;93.40
14884;DHT22;7534;50.762;7.000;2022-08-23T00:22:05;20.00;93.30
14884;DHT22;7534;50.762;7.000;2022-08-23T00:24:32;20.00;93.40
14884;DHT22;7534;50.762;7.000;2022-08-23T00:27:05;20.10;93.40
14884;DHT22;7534;50.762;7.000;2022-08-23T00:29:38;20.00;93.50
14884;DHT22;7534;50.762;7.000;2022-08-23T00:32:08;20.00;93.40
14884;DHT22;7534;50.762;7.000;2022-08-23T00:34:37;20.00;93.50
14884;DHT22;7534;50.762;7.000;2022-08-23T00:37:04;20.00;93.40
14884;DHT22;7534;50.762;7.000;2022-08-23T00:39:30;20.00;93.70
14884;DHT22;7534;50.762;7.000;2022-08-23T00:41:59;19.90;93.70
14884;DHT22;7534;50.762;7.000;2022-08-23T00:44:50;19.90;94.00
14884;DHT22;7534;50.762;7.000;2022-08-23T00:47:36;19.80;94.00
14884;DHT22;7534;50.762;7.000;2022-08-23T00:50:14;19.70;94.30
14884;DHT22;7534;50.762;7.000;2022-08-23T00:55:47;19.60;94.60
14884;DHT22;7534;50.762;7.000;2022-08-23T00:58:17;19.50;98.80
14884;DHT22;7534;50.762;7.000;2022-08-23T01:00:47;19.50;99.90
14884;DHT22;7534;50.762;7.000;2022-08-23T01:03:15;19.30;99.90
14884;DHT22;7534;50.762;7.000;2022-08-23T01:05:55;19.20;99.90
14884;DHT22;7534;50.762;7.000;2022-08-23T01:08:31;19.20;99.90
14884;DHT22;7534;50.762;7.000;2022-08-23T01:11:11;19.00;99.90
14884;DHT22;7534;50.762;7.000;2022-08-23T01:16:16;19.00;99.90
14884;DHT22;7534;50.762;7.000;2022-08-23T01:18:54;18.90;99.90
14884;DHT22;7534;50.762;7.000;2022-08-23T01:21:31;18.80;99.90
14884;DHT22;7534;50.762;7.000;2022-08-23T01:24:03;18.80;99.90
14884;DHT22;7534;50.762;7.000;2022-08-23T01:26:30;18.70;99.90
14884;DHT22;7534;50.762;7.000;2022-08-23T01:29:00;18.60;99.90
14884;DHT22;7534;50.762;7.000;2022-08-23T01:31:29;18.50;99.90
14884;DHT22;7534;50.762;7.000;2022-08-23T01:33:58;18.50;99.90
14884;DHT22;7534;50.762;7.000;2022-08-23T01:36:27;18.50;99.90
14884;DHT22;7534;50.762;7.000;2022-08-23T01:38:54;18.40;99.90
14884;DHT22;7534;50.762;7.000;2022-08-23T01:41:19;18.30;99.90
14884;DHT22;7534;50.762;7.000;2022-08-23T01:43:45;18.20;99.90
14884;DHT22;7534;50.762;7.000;2022-08-23T01:46:15;18.30;99.90
14884;DHT22;7534;50.762;7.000;2022-08-23T01:48:44;18.20;99.90
14884;DHT22;7534;50.762;7.000;2022-08-23T01:51:12;18.20;99.90
14884;DHT22;7534;50.762;7.000;2022-08-23T01:53:41;18.20;99.90
14884;DHT22;7534;50.762;7.000;2022-08-23T01:56:07;18.10;99.90
14884;DHT22;7534;50.762;7.000;2022-08-23T01:58:34;18.00;99.90
14884;DHT22;7534;50.762;7.000;2022-08-23T02:01:00;18.30;99.90
14884;DHT22;7534;50.762;7.000;2022-08-23T02:03:33;18.10;99.90
14884;DHT22;7534;50.762;7.000;2022-08-23T02:05:59;18.10;99.90
14884;DHT22;7534;50.762;7.000;2022-08-23T02:08:28;18.00;99.90
14884;DHT22;7534;50.762;7.000;2022-08-23T02:11:16;18.00;99.90
14884;DHT22;7534;50.762;7.000;2022-08-23T02:13:47;18.00;99.90
14884;DHT22;7534;50.762;7.000;2022-08-23T02:16:28;18.00;99.90
14884;DHT22;7534;50.762;7.000;2022-08-23T02:19:04;18.00;99.90
14884;DHT22;7534;50.762;7.000;2022-08-23T02:21:42;18.00;99.90
14884;DHT22;7534;50.762;7.000;2022-08-23T02:24:11;18.00;99.90
14884;DHT22;7534;50.762;7.000;2022-08-23T02:26:43;18.00;99.90
14884;DHT22;7534;50.762;7.000;2022-08-23T02:29:13;17.90;99.90
14884;DHT22;7534;50.762;7.000;2022-08-23T02:31:40;17.90;99.90
14884;DHT22;7534;50.762;7.000;2022-08-23T02:34:06;17.90;99.90
14884;DHT22;7534;50.762;7.000;2022-08-23T02:36:32;17.70;99.90
14884;DHT22;7534;50.762;7.000;2022-08-23T02:38:59;17.70;99.90
14884;DHT22;7534;50.762;7.000;2022-08-23T02:41:33;17.70;99.90
14884;DHT22;7534;50.762;7.000;2022-08-23T02:43:59;17.70;99.90
14884;DHT22;7534;50.762;7.000;2022-08-23T02:46:25;17.70;99.90
14884;DHT22;7534;50.762;7.000;2022-08-23T02:48:51;17.80;99.90
14884;DHT22;7534;50.762;7.000;2022-08-23T02:51:20;17.70;99.90
14884;DHT22;7534;50.762;7.000;2022-08-23T02:53:46;17.80;99.90
14884;DHT22;7534;50.762;7.000;2022-08-23T02:56:12;17.70;99.90
14884;DHT22;7534;50.762;7.000;2022-08-23T02:58:39;17.70;99.90
14884;DHT22;7534;50.762;7.000;2022-08-23T03:01:17;17.70;99.90
14884;DHT22;7534;50.762;7.000;2022-08-23T03:03:45;17.70;99.90
14884;DHT22;7534;50.762;7.000;2022-08-23T03:06:15;17.60;99.90
14884;DHT22;7534;50.762;7.000;2022-08-23T03:08:43;17.50;99.90
14884;DHT22;7534;50.762;7.000;2022-08-23T03:11:16;17.50;99.90
14884;DHT22;7534;50.762;7.000;2022-08-23T03:13:53;17.60;99.90
14884;DHT22;7534;50.762;7.000;2022-08-23T03:16:23;17.50;99.90
14884;DHT22;7534;50.762;7.000;2022-08-23T03:18:57;17.60;99.90
14884;DHT22;7534;50.762;7.000;2022-08-23T03:21:23;17.60;99.90
14884;DHT22;7534;50.762;7.000;2022-08-23T03:23:49;17.40;99.90
14884;DHT22;7534;50.762;7.000;2022-08-23T03:26:16;17.40;99.90
14884;DHT22;7534;50.762;7.000;2022-08-23T03:28:43;17.40;99.90
14884;DHT22;7534;50.762;7.000;2022-08-23T03:31:11;17.40;99.90
14884;DHT22;7534;50.762;7.000;2022-08-23T03:33:38;17.30;98.50
14884;DHT22;7534;50.762;7.000;2022-08-23T03:36:06;17.20;98.60
14884;DHT22;7534;50.762;7.000;2022-08-23T03:38:35;17.30;98.70
14884;DHT22;7534;50.762;7.000;2022-08-23T03:41:03;17.30;98.60
14884;DHT22;7534;50.762;7.000;2022-08-23T03:43:29;17.40;98.70
14884;DHT22;7534;50.762;7.000;2022-08-23T03:45:54;17.40;98.70
14884;DHT22;7534;50.762;7.000;2022-08-23T03:48:20;17.40;98.70
14884;DHT22;7534;50.762;7.000;2022-08-23T03:50:46;17.30;98.70
14884;DHT22;7534;50.762;7.000;2022-08-23T03:53:12;17.10;98.90
14884;DHT22;7534;50.762;7.000;2022-08-23T03:55:40;17.20;99.00
14884;DHT22;7534;50.762;7.000;2022-08-23T03:58:07;17.20;99.10
14884;DHT22;7534;50.762;7.000;2022-08-23T04:00:33;17.20;99.10
14884;DHT22;7534;50.762;7.000;2022-08-23T04:02:58;17.20;99.20
14884;DHT22;7534;50.762;7.000;2022-08-23T04:05:25;17.20;99.20
14884;DHT22;7534;50.762;7.000;2022-08-23T04:07:51;17.10;99.20
14884;DHT22;7534;50.762;7.000;2022-08-23T04:10:18;17.20;99.30
14884;DHT22;7534;50.762;7.000;2022-08-23T04:12:43;17.10;99.20
14884;DHT22;7534;50.762;7.000;2022-08-23T04:15:11;17.10;99.40
14884;DHT22;7534;50.762;7.000;2022-08-23T04:17:38;17.00;99.60
14884;DHT22;7534;50.762;7.000;2022-08-23T04:20:05;16.90;99.60
14884;DHT22;7534;50.762;7.000;2022-08-23T04:22:31;16.90;99.80
14884;DHT22;7534;50.762;7.000;2022-08-23T04:24:58;16.90;99.80
14884;DHT22;7534;50.762;7.000;2022-08-23T04:27:24;16.90;99.90
14884;DHT22;7534;50.762;7.000;2022-08-23T04:29:50;16.90;99.90
14884;DHT22;7534;50.762;7.000;2022-08-23T04:32:16;16.80;99.90
14884;DHT22;7534;50.762;7.000;2022-08-23T04:34:42;16.80;99.90
14884;DHT22;7534;50.762;7.000;2022-08-23T04:37:08;16.70;99.90
14884;DHT22;7534;50.762;7.000;2022-08-23T04:39:35;16.70;99.90
14884;DHT22;7534;50.762;7.000;2022-08-23T04:42:21;16.70;99.90
14884;DHT22;7534;50.762;7.000;2022-08-23T04:44:48;16.70;99.90
14884;DHT22;7534;50.762;7.000;2022-08-23T04:47:15;16.70;99.90
14884;DHT22;7534;50.762;7.000;2022-08-23T04:49:42;16.70;99.90
14884;DHT22;7534;50.762;7.000;2022-08-23T04:52:07;16.80;99.90
14884;DHT22;7534;50.762;7.000;2022-08-23T04:54:33;16.80;99.90
14884;DHT22;7534;50.762;7.000;2022-08-23T04:56:59;16.90;99.90
14884;DHT22;7534;50.762;7.000;2022-08-23T04:59:25;16.90;99.90
14884;DHT22;7534;50.762;7.000;2022-08-23T05:01:51;17.00;99.90
14884;DHT22;7534;50.762;7.000;2022-08-23T05:04:16;17.00;99.90
14884;DHT22;7534;50.762;7.000;2022-08-23T05:06:43;17.10;99.90
14884;DHT22;7534;50.762;7.000;2022-08-23T05:09:10;17.10;99.90
14884;DHT22;7534;50.762;7.000;2022-08-23T05:11:37;17.20;99.80
14884;DHT22;7534;50.762;7.000;2022-08-23T05:14:03;17.30;99.80
14884;DHT22;7534;50.762;7.000;2022-08-23T05:16:29;17.40;99.70
14884;DHT22;7534;50.762;7.000;2022-08-23T05:18:55;17.40;99.50
14884;DHT22;7534;50.762;7.000;2022-08-23T05:21:22;17.50;99.40
14884;DHT22;7534;50.762;7.000;2022-08-23T05:23:48;17.60;99.30
14884;DHT22;7534;50.762;7.000;2022-08-23T05:26:15;17.70;99.20
14884;DHT22;7534;50.762;7.000;2022-08-23T05:28:44;17.90;99.20
14884;DHT22;7534;50.762;7.000;2022-08-23T05:31:16;18.00;99.00
14884;DHT22;7534;50.762;7.000;2022-08-23T05:33:44;18.20;98.90
14884;DHT22;7534;50.762;7.000;2022-08-23T05:36:12;18.30;98.70
14884;DHT22;7534;50.762;7.000;2022-08-23T05:38:40;18.50;98.40
14884;DHT22;7534;50.762;7.000;2022-08-23T05:41:07;18.70;98.00
14884;DHT22;7534;50.762;7.000;2022-08-23T05:43:34;18.80;97.60
14884;DHT22;7534;50.762;7.000;2022-08-23T05:46:02;19.10;97.30
14884;DHT22;7534;50.762;7.000;2022-08-23T05:48:31;19.20;96.80
14884;DHT22;7534;50.762;7.000;2022-08-23T05:53:46;19.40;96.80
14884;DHT22;7534;50.762;7.000;2022-08-23T05:56:26;19.60;96.80
14884;DHT22;7534;50.762;7.000;2022-08-23T05:58:56;19.70;96.50
14884;DHT22;7534;50.762;7.000;2022-08-23T06:01:24;19.80;96.10
14884;DHT22;7534;50.762;7.000;2022-08-23T06:03:51;19.90;95.10
14884;DHT22;7534;50.762;7.000;2022-08-23T06:06:18;20.00;94.60
14884;DHT22;7534;50.762;7.000;2022-08-23T06:08:45;19.90;94.20
14884;DHT22;7534;50.762;7.000;2022-08-23T06:11:16;20.00;94.20
14884;DHT22;7534;50.762;7.000;2022-08-23T06:13:49;20.10;94.00
14884;DHT22;7534;50.762;7.000;2022-08-23T06:16:20;20.10;93.70
14884;DHT22;7534;50.762;7.000;2022-08-23T06:18:49;20.30;93.40
14884;DHT22;7534;50.762;7.000;2022-08-23T06:21:15;20.40;93.40
14884;DHT22;7534;50.762;7.000;2022-08-23T06:23:44;20.50;93.30
14884;DHT22;7534;50.762;7.000;2022-08-23T06:26:24;20.60;93.00
14884;DHT22;7534;50.762;7.000;2022-08-23T06:28:54;20.90;93.50
14884;DHT22;7534;50.762;7.000;2022-08-23T06:31:22;21.50;94.30
14884;DHT22;7534;50.762;7.000;2022-08-23T06:34:09;21.50;94.80
14884;DHT22;7534;50.762;7.000;2022-08-23T06:36:38;21.80;93.90
14884;DHT22;7534;50.762;7.000;2022-08-23T06:39:07;22.10;94.00
14884;DHT22;7534;50.762;7.000;2022-08-23T06:41:35;22.20;91.60
14884;DHT22;7534;50.762;7.000;2022-08-23T06:44:01;23.00;91.90
14884;DHT22;7534;50.762;7.000;2022-08-23T06:46:28;25.20;83.20
14884;DHT22;7534;50.762;7.000;2022-08-23T06:48:55;28.00;79.90
14884;DHT22;7534;50.762;7.000;2022-08-23T06:51:41;30.70;61.80
14884;DHT22;7534;50.762;7.000;2022-08-23T06:54:12;32.30;53.60
14884;DHT22;7534;50.762;7.000;2022-08-23T06:56:41;33.50;50.40
14884;DHT22;7534;50.762;7.000;2022-08-23T06:59:08;34.80;46.10
14884;DHT22;7534;50.762;7.000;2022-08-23T07:01:44;35.10;43.90
14884;DHT22;7534;50.762;7.000;2022-08-23T07:04:22;36.10;41.00
14884;DHT22;7534;50.762;7.000;2022-08-23T07:06:53;36.90;39.30
14884;DHT22;7534;50.762;7.000;2022-08-23T07:09:20;37.60;36.50
14884;DHT22;7534;50.762;7.000;2022-08-23T07:11:46;37.80;35.50
14884;DHT22;7534;50.762;7.000;2022-08-23T07:14:17;38.70;34.30
14884;DHT22;7534;50.762;7.000;2022-08-23T07:16:50;39.40;33.00
14884;DHT22;7534;50.762;7.000;2022-08-23T07:19:24;39.90;32.40
14884;DHT22;7534;50.762;7.000;2022-08-23T07:21:54;40.30;30.60
14884;DHT22;7534;50.762;7.000;2022-08-23T07:24:21;40.70;30.20
14884;DHT22;7534;50.762;7.000;2022-08-23T07:26:48;40.80;29.60
14884;DHT22;7534;50.762;7.000;2022-08-23T07:29:17;40.80;29.60
14884;DHT22;7534;50.762;7.000;2022-08-23T07:31:54;40.70;29.10
14884;DHT22;7534;50.762;7.000;2022-08-23T07:34:20;40.90;28.90
14884;DHT22;7534;50.762;7.000;2022-08-23T07:36:48;41.60;29.40
14884;DHT22;7534;50.762;7.000;2022-08-23T07:39:16;42.20;27.60
14884;DHT22;7534;50.762;7.000;2022-08-23T07:41:43;42.80;27.00
14884;DHT22;7534;50.762;7.000;2022-08-23T07:44:10;43.20;26.70
14884;DHT22;7534;50.762;7.000;2022-08-23T07:46:38;43.40;25.90
14884;DHT22;7534;50.762;7.000;2022-08-23T07:49:08;43.70;25.80
14884;DHT22;7534;50.762;7.000;2022-08-23T07:51:36;43.40;25.80
14884;DHT22;7534;50.762;7.000;2022-08-23T07:54:05;43.80;25.60
14884;DHT22;7534;50.762;7.000;2022-08-23T07:56:34;43.10;25.90
14884;DHT22;7534;50.762;7.000;2022-08-23T07:59:00;42.80;26.20
14884;DHT22;7534;50.762;7.000;2022-08-23T08:01:28;42.00;26.00
14884;DHT22;7534;50.762;7.000;2022-08-23T08:03:56;41.60;26.70
14884;DHT22;7534;50.762;7.000;2022-08-23T08:06:30;40.60;27.50
14884;DHT22;7534;50.762;7.000;2022-08-23T08:08:59;40.60;27.70
14884;DHT22;7534;50.762;7.000;2022-08-23T08:11:27;41.60;28.30
14884;DHT22;7534;50.762;7.000;2022-08-23T08:13:55;42.30;26.50
14884;DHT22;7534;50.762;7.000;2022-08-23T08:16:32;42.60;26.30
14884;DHT22;7534;50.762;7.000;2022-08-23T08:19:03;43.10;26.00
14884;DHT22;7534;50.762;7.000;2022-08-23T08:21:31;42.80;26.50
14884;DHT22;7534;50.762;7.000;2022-08-23T08:23:57;42.40;26.10
14884;DHT22;7534;50.762;7.000;2022-08-23T08:26:23;42.10;26.40
14884;DHT22;7534;50.762;7.000;2022-08-23T08:28:50;42.90;26.30
14884;DHT22;7534;50.762;7.000;2022-08-23T08:31:16;43.40;26.60
14884;DHT22;7534;50.762;7.000;2022-08-23T08:33:42;44.10;26.00
14884;DHT22;7534;50.762;7.000;2022-08-23T08:36:30;44.70;25.20
14884;DHT22;7534;50.762;7.000;2022-08-23T08:38:56;44.70;24.80
14884;DHT22;7534;50.762;7.000;2022-08-23T08:41:42;43.20;25.40
14884;DHT22;7534;50.762;7.000;2022-08-23T08:46:55;42.40;26.30
14884;DHT22;7534;50.762;7.000;2022-08-23T08:49:35;42.40;25.50
14884;DHT22;7534;50.762;7.000;2022-08-23T08:52:23;41.80;26.50
14884;DHT22;7534;50.762;7.000;2022-08-23T08:55:11;41.20;26.90
14884;DHT22;7534;50.762;7.000;2022-08-23T08:57:44;41.20;27.20
14884;DHT22;7534;50.762;7.000;2022-08-23T09:00:35;40.70;27.40
14884;DHT22;7534;50.762;7.000;2022-08-23T09:03:18;41.50;26.90
14884;DHT22;7534;50.762;7.000;2022-08-23T09:06:00;42.40;26.40
14884;DHT22;7534;50.762;7.000;2022-08-23T09:11:42;43.20;25.90
14884;DHT22;7534;50.762;7.000;2022-08-23T09:17:09;43.80;25.50
14884;DHT22;7534;50.762;7.000;2022-08-23T09:19:46;44.10;25.10
14884;DHT22;7534;50.762;7.000;2022-08-23T09:22:21;44.30;25.00
14884;DHT22;7534;50.762;7.000;2022-08-23T09:24:56;43.60;25.00
14884;DHT22;7534;50.762;7.000;2022-08-23T09:27:22;43.20;25.50
14884;DHT22;7534;50.762;7.000;2022-08-23T09:29:55;43.50;25.00
14884;DHT22;7534;50.762;7.000;2022-08-23T09:32:30;42.40;26.00
14884;DHT22;7534;50.762;7.000;2022-08-23T09:35:08;41.50;26.40
14884;DHT22;7534;50.762;7.000;2022-08-23T09:40:48;42.00;26.30
14884;DHT22;7534;50.762;7.000;2022-08-23T09:43:19;41.10;27.10
14884;DHT22;7534;50.762;7.000;2022-08-23T09:53:49;41.40;27.70
14884;DHT22;7534;50.762;7.000;2022-08-23T09:56:27;41.90;26.80
14884;DHT22;7534;50.762;7.000;2022-08-23T09:58:58;41.50;27.00
14884;DHT22;7534;50.762;7.000;2022-08-23T10:01:26;39.50;28.00
14884;DHT22;7534;50.762;7.000;2022-08-23T10:07:00;39.10;28.80
14884;DHT22;7534;50.762;7.000;2022-08-23T10:09:47;39.10;28.80
14884;DHT22;7534;50.762;7.000;2022-08-23T10:12:13;38.80;29.00
14884;DHT22;7534;50.762;7.000;2022-08-23T10:14:38;38.40;29.10
14884;DHT22;7534;50.762;7.000;2022-08-23T10:20:21;38.30;29.20
14884;DHT22;7534;50.762;7.000;2022-08-23T10:23:10;38.20;29.20
14884;DHT22;7534;50.762;7.000;2022-08-23T10:25:59;38.50;29.00
14884;DHT22;7534;50.762;7.000;2022-08-23T10:43:00;35.70;33.80
14884;DHT22;7534;50.762;7.000;2022-08-23T10:45:50;35.80;32.30
14884;DHT22;7534;50.762;7.000;2022-08-23T10:54:02;34.50;34.20
14884;DHT22;7534;50.762;7.000;2022-08-23T10:56:35;34.50;34.40
14884;DHT22;7534;50.762;7.000;2022-08-23T10:59:22;34.20;34.20
14884;DHT22;7534;50.762;7.000;2022-08-23T11:06:52;33.80;34.80
14884;DHT22;7534;50.762;7.000;2022-08-23T11:17:29;33.50;36.70
14884;DHT22;7534;50.762;7.000;2022-08-23T11:20:09;33.20;36.40
14884;DHT22;7534;50.762;7.000;2022-08-23T11:27:47;32.90;36.50
14884;DHT22;7534;50.762;7.000;2022-08-23T11:33:28;32.70;37.00
14884;DHT22;7534;50.762;7.000;2022-08-23T11:36:20;32.10;38.00
14884;DHT22;7534;50.762;7.000;2022-08-23T11:47:02;32.00;38.50
14884;DHT22;7534;50.762;7.000;2022-08-23T11:59:01;33.20;37.60
14884;DHT22;7534;50.762;7.000;2022-08-23T12:01:45;33.20;35.90
14884;DHT22;7534;50.762;7.000;2022-08-23T12:07:06;33.20;35.80
14884;DHT22;7534;50.762;7.000;2022-08-23T12:12:13;33.70;34.80
14884;DHT22;7534;50.762;7.000;2022-08-23T12:14:53;33.40;34.90
14884;DHT22;7534;50.762;7.000;2022-08-23T12:19:53;33.50;34.80
14884;DHT22;7534;50.762;7.000;2022-08-23T12:22:27;33.60;34.40
14884;DHT22;7534;50.762;7.000;2022-08-23T12:25:18;33.90;33.70
14884;DHT22;7534;50.762;7.000;2022-08-23T12:27:51;34.10;33.50
14884;DHT22;7534;50.762;7.000;2022-08-23T12:30:48;34.00;33.40
14884;DHT22;7534;50.762;7.000;2022-08-23T12:36:17;34.50;34.20
14884;DHT22;7534;50.762;7.000;2022-08-23T12:44:16;35.00;34.80
14884;DHT22;7534;50.762;7.000;2022-08-23T12:46:47;35.10;32.40
14884;DHT22;7534;50.762;7.000;2022-08-23T12:49:29;35.20;32.20
14884;DHT22;7534;50.762;7.000;2022-08-23T12:52:00;35.30;33.90
14884;DHT22;7534;50.762;7.000;2022-08-23T12:54:41;35.50;31.20
14884;DHT22;7534;50.762;7.000;2022-08-23T12:57:14;35.50;32.10
14884;DHT22;7534;50.762;7.000;2022-08-23T12:59:54;35.50;32.00
14884;DHT22;7534;50.762;7.000;2022-08-23T13:02:31;35.70;31.20
14884;DHT22;7534;50.762;7.000;2022-08-23T13:05:48;36.10;30.80
14884;DHT22;7534;50.762;7.000;2022-08-23T13:08:00;36.50;32.40
14884;DHT22;7534;50.762;7.000;2022-08-23T13:10:30;37.10;29.60
14884;DHT22;7534;50.762;7.000;2022-08-23T13:12:57;37.20;29.80
14884;DHT22;7534;50.762;7.000;2022-08-23T13:15:54;37.00;29.30
14884;DHT22;7534;50.762;7.000;2022-08-23T13:18:42;36.70;30.40
14884;DHT22;7534;50.762;7.000;2022-08-23T13:21:39;36.40;31.60
14884;DHT22;7534;50.762;7.000;2022-08-23T13:24:30;35.60;30.60
14884;DHT22;7534;50.762;7.000;2022-08-23T13:27:20;35.00;31.30
14884;DHT22;7534;50.762;7.000;2022-08-23T13:29:56;34.90;32.80
14884;DHT22;7534;50.762;7.000;2022-08-23T13:32:43;34.90;31.70
14884;DHT22;7534;50.762;7.000;2022-08-23T13:37:53;35.00;31.70
14884;DHT22;7534;50.762;7.000;2022-08-23T13:40:25;35.10;31.90
14884;DHT22;7534;50.762;7.000;2022-08-23T13:43:04;35.30;33.00
14884;DHT22;7534;50.762;7.000;2022-08-23T13:45:44;35.40;33.30
14884;DHT22;7534;50.762;7.000;2022-08-23T13:48:20;35.10;34.00
14884;DHT22;7534;50.762;7.000;2022-08-23T13:50:48;35.20;33.00
14884;DHT22;7534;50.762;7.000;2022-08-23T13:53:15;34.90;32.40
14884;DHT22;7534;50.762;7.000;2022-08-23T13:55:54;34.80;33.50
14884;DHT22;7534;50.762;7.000;2022-08-23T13:58:28;34.70;32.90
14884;DHT22;7534;50.762;7.000;2022-08-23T14:00:57;34.80;32.50
14884;DHT22;7534;50.762;7.000;2022-08-23T14:03:26;34.50;32.90
14884;DHT22;7534;50.762;7.000;2022-08-23T14:05:53;34.80;35.30
14884;DHT22;7534;50.762;7.000;2022-08-23T14:08:19;34.90;33.70
14884;DHT22;7534;50.762;7.000;2022-08-23T14:10:46;35.20;33.80
14884;DHT22;7534;50.762;7.000;2022-08-23T14:13:13;35.30;34.30
14884;DHT22;7534;50.762;7.000;2022-08-23T14:15:43;35.20;32.80
14884;DHT22;7534;50.762;7.000;2022-08-23T14:18:10;35.20;33.80
14884;DHT22;7534;50.762;7.000;2022-08-23T14:20:37;35.50;32.30
14884;DHT22;7534;50.762;7.000;2022-08-23T14:23:04;35.50;31.10
14884;DHT22;7534;50.762;7.000;2022-08-23T14:25:30;35.50;30.60
14884;DHT22;7534;50.762;7.000;2022-08-23T14:27:56;35.50;30.80
14884;DHT22;7534;50.762;7.000;2022-08-23T14:30:29;35.30;31.70
14884;DHT22;7534;50.762;7.000;2022-08-23T14:32:58;35.10;31.80
14884;DHT22;7534;50.762;7.000;2022-08-23T14:35:24;35.10;31.80
14884;DHT22;7534;50.762;7.000;2022-08-23T14:37:50;35.30;31.90
14884;DHT22;7534;50.762;7.000;2022-08-23T14:40:16;35.60;32.10
14884;DHT22;7534;50.762;7.000;2022-08-23T14:42:43;36.10;30.90
14884;DHT22;7534;50.762;7.000;2022-08-23T14:45:11;36.40;30.90
14884;DHT22;7534;50.762;7.000;2022-08-23T14:47:37;36.90;30.90
14884;DHT22;7534;50.762;7.000;2022-08-23T14:50:06;36.70;30.70
14884;DHT22;7534;50.762;7.000;2022-08-23T14:52:36;36.70;29.80
14884;DHT22;7534;50.762;7.000;2022-08-23T14:55:04;36.60;30.80
14884;DHT22;7534;50.762;7.000;2022-08-23T14:57:30;36.60;30.00
14884;DHT22;7534;50.762;7.000;2022-08-23T14:59:56;37.00;29.70
14884;DHT22;7534;50.762;7.000;2022-08-23T15:02:23;37.40;29.30
14884;DHT22;7534;50.762;7.000;2022-08-23T15:04:51;37.90;29.80
14884;DHT22;7534;50.762;7.000;2022-08-23T15:07:18;38.20;28.70
14884;DHT22;7534;50.762;7.000;2022-08-23T15:09:47;38.30;28.50
14884;DHT22;7534;50.762;7.000;2022-08-23T15:12:16;38.10;28.80
14884;DHT22;7534;50.762;7.000;2022-08-23T15:14:43;37.70;28.40
14884;DHT22;7534;50.762;7.000;2022-08-23T15:17:09;37.60;29.00
14884;DHT22;7534;50.762;7.000;2022-08-23T15:19:34;37.60;29.10
14884;DHT22;7534;50.762;7.000;2022-08-23T15:22:02;37.40;30.30
14884;DHT22;7534;50.762;7.000;2022-08-23T15:24:28;37.20;30.50
14884;DHT22;7534;50.762;7.000;2022-08-23T15:27:04;36.80;30.90
14884;DHT22;7534;50.762;7.000;2022-08-23T15:29:31;36.70;30.70
14884;DHT22;7534;50.762;7.000;2022-08-23T15:31:57;36.40;31.60
14884;DHT22;7534;50.762;7.000;2022-08-23T15:34:23;36.10;31.80
14884;DHT22;7534;50.762;7.000;2022-08-23T15:36:48;35.80;32.50
14884;DHT22;7534;50.762;7.000;2022-08-23T15:39:15;35.30;32.50
14884;DHT22;7534;50.762;7.000;2022-08-23T15:41:41;35.10;33.20
14884;DHT22;7534;50.762;7.000;2022-08-23T15:44:07;35.00;33.70
14884;DHT22;7534;50.762;7.000;2022-08-23T15:46:33;34.90;34.10
14884;DHT22;7534;50.762;7.000;2022-08-23T15:49:02;35.00;34.00
14884;DHT22;7534;50.762;7.000;2022-08-23T15:51:37;35.00;34.30
14884;DHT22;7534;50.762;7.000;2022-08-23T15:54:03;35.20;34.30
14884;DHT22;7534;50.762;7.000;2022-08-23T15:56:34;35.10;33.30
14884;DHT22;7534;50.762;7.000;2022-08-23T15:59:03;35.10;32.90
14884;DHT22;7534;50.762;7.000;2022-08-23T16:01:29;35.20;33.30
14884;DHT22;7534;50.762;7.000;2022-08-23T16:03:58;35.40;33.50
14884;DHT22;7534;50.762;7.000;2022-08-23T16:06:25;35.40;33.30
14884;DHT22;7534;50.762;7.000;2022-08-23T16:08:51;35.50;32.90
14884;DHT22;7534;50.762;7.000;2022-08-23T16:11:18;35.30;33.60
14884;DHT22;7534;50.762;7.000;2022-08-23T16:13:47;35.20;33.60
14884;DHT22;7534;50.762;7.000;2022-08-23T16:16:20;34.90;33.30
14884;DHT22;7534;50.762;7.000;2022-08-23T16:18:49;35.00;34.60
14884;DHT22;7534;50.762;7.000;2022-08-23T16:21:17;35.00;34.20
14884;DHT22;7534;50.762;7.000;2022-08-23T16:23:43;34.80;33.90
14884;DHT22;7534;50.762;7.000;2022-08-23T16:26:15;34.80;33.80
14884;DHT22;7534;50.762;7.000;2022-08-23T16:28:44;34.80;34.80
14884;DHT22;7534;50.762;7.000;2022-08-23T16:31:13;34.90;35.40
14884;DHT22;7534;50.762;7.000;2022-08-23T16:33:43;34.90;34.00
14884;DHT22;7534;50.762;7.000;2022-08-23T16:39:50;34.60;34.30
14884;DHT22;7534;50.762;7.000;2022-08-23T16:42:16;34.50;35.50
14884;DHT22;7534;50.762;7.000;2022-08-23T16:44:42;34.30;34.80
14884;DHT22;7534;50.762;7.000;2022-08-23T16:47:09;34.00;34.90
14884;DHT22;7534;50.762;7.000;2022-08-23T16:49:37;33.90;35.90
14884;DHT22;7534;50.762;7.000;2022-08-23T16:52:04;33.80;36.50
14884;DHT22;7534;50.762;7.000;2022-08-23T16:54:30;33.50;36.90
14884;DHT22;7534;50.762;7.000;2022-08-23T16:56:56;33.40;37.50
14884;DHT22;7534;50.762;7.000;2022-08-23T16:59:21;33.30;38.90
14884;DHT22;7534;50.762;7.000;2022-08-23T17:04:17;32.90;38.30
14884;DHT22;7534;50.762;7.000;2022-08-23T17:06:45;32.70;39.30
14884;DHT22;7534;50.762;7.000;2022-08-23T17:09:12;32.60;40.00
14884;DHT22;7534;50.762;7.000;2022-08-23T17:11:39;32.70;39.80
14884;DHT22;7534;50.762;7.000;2022-08-23T17:14:08;32.50;40.50
14884;DHT22;7534;50.762;7.000;2022-08-23T17:16:34;32.30;41.20
14884;DHT22;7534;50.762;7.000;2022-08-23T17:19:00;32.10;42.00
14884;DHT22;7534;50.762;7.000;2022-08-23T17:21:27;31.80;42.50
14884;DHT22;7534;50.762;7.000;2022-08-23T17:23:53;31.60;44.00
14884;DHT22;7534;50.762;7.000;2022-08-23T17:26:19;31.40;44.10
14884;DHT22;7534;50.762;7.000;2022-08-23T17:28:47;31.20;44.70
14884;DHT22;7534;50.762;7.000;2022-08-23T17:31:14;31.10;45.30
14884;DHT22;7534;50.762;7.000;2022-08-23T17:33:44;30.90;45.20
14884;DHT22;7534;50.762;7.000;2022-08-23T17:36:45;30.80;46.00
14884;DHT22;7534;50.762;7.000;2022-08-23T17:39:17;30.60;46.60
14884;DHT22;7534;50.762;7.000;2022-08-23T17:41:46;30.50;47.50
14884;DHT22;7534;50.762;7.000;2022-08-23T17:44:12;30.30;47.80
14884;DHT22;7534;50.762;7.000;2022-08-23T17:46:41;30.20;48.70
14884;DHT22;7534;50.762;7.000;2022-08-23T17:49:10;30.10;49.20
14884;DHT22;7534;50.762;7.000;2022-08-23T17:51:38;30.00;49.30
14884;DHT22;7534;50.762;7.000;2022-08-23T17:54:06;29.90;49.60
14884;DHT22;7534;50.762;7.000;2022-08-23T17:56:33;29.80;50.20
14884;DHT22;7534;50.762;7.000;2022-08-23T17:58:59;29.70;50.70
14884;DHT22;7534;50.762;7.000;2022-08-23T18:01:25;29.60;51.50
14884;DHT22;7534;50.762;7.000;2022-08-23T18:03:51;29.50;52.30
14884;DHT22;7534;50.762;7.000;2022-08-23T18:06:18;29.40;52.60